sensor_id;sensor_type;location;lat;lon;timestamp;temperature;humidity
21267;DHT22;10791;53.108;18.326;2023-04-01T00:04:54;10.40;99.90
21267;DHT22;10791;53.108;18.326;2023-04-01T00:09:57;10.30;99.90
21267;DHT22;10791;53.108;18.326;2023-04-01T00:15:01;10.30;99.90
21267;DHT22;10791;53.108;18.326;2023-04-01T00:20:06;10.30;99.90
21267;DHT22;10791;53.108;18.326;2023-04-01T00:25:10;10.30;99.90
21267;DHT22;10791;53.108;18.326;2023-04-01T00:30:14;10.30;99.90
21267;DHT22;10791;53.108;18.326;2023-04-01T00:35:18;10.40;99.90
21267;DHT22;10791;53.108;18.326;2023-04-01T00:40:27;10.30;99.90
21267;DHT22;10791;53.108;18.326;2023-04-01T00:45:37;10.30;99.90
21267;DHT22;10791;53.108;18.326;2023-04-01T00:50:46;10.30;99.90
21267;DHT22;10791;53.108;18.326;2023-04-01T00:56:14;10.30;99.90
21267;DHT22;10791;53.108;18.326;2023-04-01T01:01:20;10.30;99.90
21267;DHT22;10791;53.108;18.326;2023-04-01T01:22:33;10.30;99.90
21267;DHT22;10791;53.108;18.326;2023-04-01T01:27:41;10.30;99.90
21267;DHT22;10791;53.108;18.326;2023-04-01T01:38:35;10.00;99.90
21267;DHT22;10791;53.108;18.326;2023-04-01T01:43:42;10.00;99.90
21267;DHT22;10791;53.108;18.326;2023-04-01T01:48:47;9.70;99.90
21267;DHT22;10791;53.108;18.326;2023-04-01T01:53:51;9.70;99.90
21267;DHT22;10791;53.108;18.326;2023-04-01T01:59:00;9.60;99.90
21267;DHT22;10791;53.108;18.326;2023-04-01T02:04:05;9.40;99.90
21267;DHT22;10791;53.108;18.326;2023-04-01T02:09:10;9.30;99.90
21267;DHT22;10791;53.108;18.326;2023-04-01T02:14:16;9.20;99.90
21267;DHT22;10791;53.108;18.326;2023-04-01T02:19:23;9.10;99.90
21267;DHT22;10791;53.108;18.326;2023-04-01T02:24:30;9.10;99.90
21267;DHT22;10791;53.108;18.326;2023-04-01T02:29:36;9.00;99.90
21267;DHT22;10791;53.108;18.326;2023-04-01T02:34:39;9.00;99.90
21267;DHT22;10791;53.108;18.326;2023-04-01T02:39:43;8.90;99.90
21267;DHT22;10791;53.108;18.326;2023-04-01T02:44:47;8.80;99.90
21267;DHT22;10791;53.108;18.326;2023-04-01T02:49:50;8.80;99.90
21267;DHT22;10791;53.108;18.326;2023-04-01T02:54:54;8.70;99.90
21267;DHT22;10791;53.108;18.326;2023-04-01T02:59:57;8.70;99.90
21267;DHT22;10791;53.108;18.326;2023-04-01T03:05:01;8.70;99.90
21267;DHT22;10791;53.108;18.326;2023-04-01T03:10:06;8.60;99.90
21267;DHT22;10791;53.108;18.326;2023-04-01T03:15:13;8.60;99.90
21267;DHT22;10791;53.108;18.326;2023-04-01T03:20:17;8.70;99.90
21267;DHT22;10791;53.108;18.326;2023-04-01T03:25:21;8.70;99.90
21267;DHT22;10791;53.108;18.326;2023-04-01T03:30:25;8.60;99.90
21267;DHT22;10791;53.108;18.326;2023-04-01T03:35:28;8.50;99.90
21267;DHT22;10791;53.108;18.326;2023-04-01T03:40:31;8.60;99.90
21267;DHT22;10791;53.108;18.326;2023-04-01T03:45:46;8.50;99.90
21267;DHT22;10791;53.108;18.326;2023-04-01T03:50:50;8.50;99.90
21267;DHT22;10791;53.108;18.326;2023-04-01T03:55:53;8.40;99.90
21267;DHT22;10791;53.108;18.326;2023-04-01T04:00:56;8.10;99.90
21267;DHT22;10791;53.108;18.326;2023-04-01T04:06:00;8.00;99.90
21267;DHT22;10791;53.108;18.326;2023-04-01T04:11:03;7.90;99.90
21267;DHT22;10791;53.108;18.326;2023-04-01T04:16:07;7.80;99.90
21267;DHT22;10791;53.108;18.326;2023-04-01T04:21:15;7.80;99.90
21267;DHT22;10791;53.108;18.326;2023-04-01T04:26:18;7.80;99.90
21267;DHT22;10791;53.108;18.326;2023-04-01T04:31:23;7.60;99.90
21267;DHT22;10791;53.108;18.326;2023-04-01T04:36:27;7.40;99.90
21267;DHT22;10791;53.108;18.326;2023-04-01T04:41:30;7.30;99.90
21267;DHT22;10791;53.108;18.326;2023-04-01T04:46:34;7.20;99.90
21267;DHT22;10791;53.108;18.326;2023-04-01T04:51:39;7.20;99.90
21267;DHT22;10791;53.108;18.326;2023-04-01T04:56:42;7.00;99.90
21267;DHT22;10791;53.108;18.326;2023-04-01T05:01:45;7.00;99.90
21267;DHT22;10791;53.108;18.326;2023-04-01T05:06:49;6.90;99.90
21267;DHT22;10791;53.108;18.326;2023-04-01T05:11:53;6.80;99.90
21267;DHT22;10791;53.108;18.326;2023-04-01T05:16:56;6.70;99.90
21267;DHT22;10791;53.108;18.326;2023-04-01T05:21:59;6.70;99.90
21267;DHT22;10791;53.108;18.326;2023-04-01T05:27:03;6.70;99.90
21267;DHT22;10791;53.108;18.326;2023-04-01T05:32:07;6.70;99.90
21267;DHT22;10791;53.108;18.326;2023-04-01T05:37:10;6.60;99.90
21267;DHT22;10791;53.108;18.326;2023-04-01T05:42:14;6.50;99.90
21267;DHT22;10791;53.108;18.326;2023-04-01T05:47:18;6.40;99.90
21267;DHT22;10791;53.108;18.326;2023-04-01T05:52:22;6.40;99.90
21267;DHT22;10791;53.108;18.326;2023-04-01T05:57:25;6.50;99.90
21267;DHT22;10791;53.108;18.326;2023-04-01T06:02:29;6.40;99.90
21267;DHT22;10791;53.108;18.326;2023-04-01T06:07:32;6.40;99.90
21267;DHT22;10791;53.108;18.326;2023-04-01T06:13:52;6.40;99.90
21267;DHT22;10791;53.108;18.326;2023-04-01T06:18:50;6.40;99.90
21267;DHT22;10791;53.108;18.326;2023-04-01T06:24:24;6.50;99.90
21267;DHT22;10791;53.108;18.326;2023-04-01T06:40:22;6.70;99.90
21267;DHT22;10791;53.108;18.326;2023-04-01T06:45:45;6.70;99.90
21267;DHT22;10791;53.108;18.326;2023-04-01T06:51:14;6.70;99.90
21267;DHT22;10791;53.108;18.326;2023-04-01T06:56:23;6.70;99.90
21267;DHT22;10791;53.108;18.326;2023-04-01T07:01:50;6.80;99.90
21267;DHT22;10791;53.108;18.326;2023-04-01T07:12:21;6.80;99.90
21267;DHT22;10791;53.108;18.326;2023-04-01T07:17:33;6.80;99.90
21267;DHT22;10791;53.108;18.326;2023-04-01T07:22:45;6.90;99.90
21267;DHT22;10791;53.108;18.326;2023-04-01T07:28:04;7.00;99.90
21267;DHT22;10791;53.108;18.326;2023-04-01T07:33:15;7.00;99.90
21267;DHT22;10791;53.108;18.326;2023-04-01T07:38:35;7.00;99.90
21267;DHT22;10791;53.108;18.326;2023-04-01T07:44:06;7.00;99.90
21267;DHT22;10791;53.108;18.326;2023-04-01T07:49:17;6.90;99.90
21267;DHT22;10791;53.108;18.326;2023-04-01T07:54:35;6.80;99.90
21267;DHT22;10791;53.108;18.326;2023-04-01T07:59:56;6.80;99.90
21267;DHT22;10791;53.108;18.326;2023-04-01T08:05:25;6.90;99.90
21267;DHT22;10791;53.108;18.326;2023-04-01T08:10:48;6.90;99.90
21267;DHT22;10791;53.108;18.326;2023-04-01T08:16:09;6.70;99.90
21267;DHT22;10791;53.108;18.326;2023-04-01T08:21:45;6.70;99.90
21267;DHT22;10791;53.108;18.326;2023-04-01T08:26:53;6.60;99.90
21267;DHT22;10791;53.108;18.326;2023-04-01T08:32:22;6.60;99.90
21267;DHT22;10791;53.108;18.326;2023-04-01T08:37:34;6.60;99.90
21267;DHT22;10791;53.108;18.326;2023-04-01T08:42:54;6.70;99.90
21267;DHT22;10791;53.108;18.326;2023-04-01T08:54:19;7.10;99.90
21267;DHT22;10791;53.108;18.326;2023-04-01T09:00:15;7.10;99.90
21267;DHT22;10791;53.108;18.326;2023-04-01T09:27:26;7.40;99.90
21267;DHT22;10791;53.108;18.326;2023-04-01T09:49:03;7.50;99.90
21267;DHT22;10791;53.108;18.326;2023-04-01T10:11:04;7.40;99.90
21267;DHT22;10791;53.108;18.326;2023-04-01T10:37:29;7.60;99.90
21267;DHT22;10791;53.108;18.326;2023-04-01T11:21:32;7.50;99.90
21267;DHT22;10791;53.108;18.326;2023-04-01T12:10:17;7.70;99.90
21267;DHT22;10791;53.108;18.326;2023-04-01T12:27:52;8.00;99.90
21267;DHT22;10791;53.108;18.326;2023-04-01T12:43:27;8.10;99.90
21267;DHT22;10791;53.108;18.326;2023-04-01T12:59:58;8.00;99.90
21267;DHT22;10791;53.108;18.326;2023-04-01T13:11:27;8.00;99.90
21267;DHT22;10791;53.108;18.326;2023-04-01T13:27:35;8.00;99.90
21267;DHT22;10791;53.108;18.326;2023-04-01T13:32:59;8.00;99.90
21267;DHT22;10791;53.108;18.326;2023-04-01T13:43:32;7.90;99.90
21267;DHT22;10791;53.108;18.326;2023-04-01T14:04:50;7.60;99.90
21267;DHT22;10791;53.108;18.326;2023-04-01T14:16:24;7.40;99.90
21267;DHT22;10791;53.108;18.326;2023-04-01T14:27:12;7.20;99.90
21267;DHT22;10791;53.108;18.326;2023-04-01T14:32:55;7.10;99.90
21267;DHT22;10791;53.108;18.326;2023-04-01T14:39:21;7.00;99.90
21267;DHT22;10791;53.108;18.326;2023-04-01T14:54:46;6.70;99.90
21267;DHT22;10791;53.108;18.326;2023-04-01T15:05:42;6.60;99.90
21267;DHT22;10791;53.108;18.326;2023-04-01T15:16:48;6.20;99.90
21267;DHT22;10791;53.108;18.326;2023-04-01T15:34:07;5.90;99.90
21267;DHT22;10791;53.108;18.326;2023-04-01T15:38:49;5.90;99.90
21267;DHT22;10791;53.108;18.326;2023-04-01T15:43:53;5.80;99.90
21267;DHT22;10791;53.108;18.326;2023-04-01T15:49:34;5.60;99.90
21267;DHT22;10791;53.108;18.326;2023-04-01T16:11:12;5.20;99.90
21267;DHT22;10791;53.108;18.326;2023-04-01T16:21:54;5.10;99.90
21267;DHT22;10791;53.108;18.326;2023-04-01T16:37:54;5.00;99.90
21267;DHT22;10791;53.108;18.326;2023-04-01T16:43:49;5.00;99.90
21267;DHT22;10791;53.108;18.326;2023-04-01T16:54:40;4.80;99.90
21267;DHT22;10791;53.108;18.326;2023-04-01T17:00:00;4.80;99.90
21267;DHT22;10791;53.108;18.326;2023-04-01T17:05:12;4.80;99.90
21267;DHT22;10791;53.108;18.326;2023-04-01T17:10:37;4.70;99.90
21267;DHT22;10791;53.108;18.326;2023-04-01T17:21:10;4.50;99.90
21267;DHT22;10791;53.108;18.326;2023-04-01T17:26:42;4.40;99.90
21267;DHT22;10791;53.108;18.326;2023-04-01T17:32:17;4.40;99.90
21267;DHT22;10791;53.108;18.326;2023-04-01T17:37:52;4.40;99.90
21267;DHT22;10791;53.108;18.326;2023-04-01T17:48:43;4.40;99.90
21267;DHT22;10791;53.108;18.326;2023-04-01T17:59:47;4.20;99.90
21267;DHT22;10791;53.108;18.326;2023-04-01T18:05:26;4.20;99.90
21267;DHT22;10791;53.108;18.326;2023-04-01T18:27:39;4.10;99.90
21267;DHT22;10791;53.108;18.326;2023-04-01T18:33:03;4.10;99.90
21267;DHT22;10791;53.108;18.326;2023-04-01T18:38:34;4.00;99.90
21267;DHT22;10791;53.108;18.326;2023-04-01T18:54:39;4.00;99.90
21267;DHT22;10791;53.108;18.326;2023-04-01T18:59:53;4.00;99.90
21267;DHT22;10791;53.108;18.326;2023-04-01T19:05:14;4.00;99.90
21267;DHT22;10791;53.108;18.326;2023-04-01T19:10:40;3.90;99.90
21267;DHT22;10791;53.108;18.326;2023-04-01T19:16:12;3.90;99.90
21267;DHT22;10791;53.108;18.326;2023-04-01T19:22:13;3.90;99.90
21267;DHT22;10791;53.108;18.326;2023-04-01T19:27:26;3.90;99.90
21267;DHT22;10791;53.108;18.326;2023-04-01T19:33:06;3.90;99.90
21267;DHT22;10791;53.108;18.326;2023-04-01T19:38:37;3.90;99.90
21267;DHT22;10791;53.108;18.326;2023-04-01T19:44:17;3.90;99.90
21267;DHT22;10791;53.108;18.326;2023-04-01T19:55:13;3.90;99.90
21267;DHT22;10791;53.108;18.326;2023-04-01T20:06:55;3.80;99.90
21267;DHT22;10791;53.108;18.326;2023-04-01T20:44:03;3.40;99.90
21267;DHT22;10791;53.108;18.326;2023-04-01T20:49:34;3.40;99.90
21267;DHT22;10791;53.108;18.326;2023-04-01T21:05:49;3.50;99.90
21267;DHT22;10791;53.108;18.326;2023-04-01T21:11:10;3.40;99.90
21267;DHT22;10791;53.108;18.326;2023-04-01T21:17:07;3.50;99.90
21267;DHT22;10791;53.108;18.326;2023-04-01T21:22:12;3.50;99.90
21267;DHT22;10791;53.108;18.326;2023-04-01T21:38:31;3.40;99.90
21267;DHT22;10791;53.108;18.326;2023-04-01T21:44:05;3.40;99.90
21267;DHT22;10791;53.108;18.326;2023-04-01T22:06:20;3.50;99.90
21267;DHT22;10791;53.108;18.326;2023-04-01T22:16:56;3.50;99.90
21267;DHT22;10791;53.108;18.326;2023-04-01T22:33:19;3.50;99.90
21267;DHT22;10791;53.108;18.326;2023-04-01T22:38:55;3.50;99.90
21267;DHT22;10791;53.108;18.326;2023-04-01T22:44:00;3.50;99.90
21267;DHT22;10791;53.108;18.326;2023-04-01T23:04:40;3.50;99.90
21267;DHT22;10791;53.108;18.326;2023-04-01T23:09:45;3.50;99.90
21267;DHT22;10791;53.108;18.326;2023-04-01T23:14:53;3.50;99.90
21267;DHT22;10791;53.108;18.326;2023-04-01T23:20:12;3.40;99.90
21267;DHT22;10791;53.108;18.326;2023-04-01T23:36:10;3.50;99.90
21267;DHT22;10791;53.108;18.326;2023-04-01T23:41:27;3.50;99.90
21267;DHT22;10791;53.108;18.326;2023-04-01T23:46:33;3.50;99.90
21267;DHT22;10791;53.108;18.326;2023-04-01T23:51:46;3.50;99.90
21267;DHT22;10791;53.108;18.326;2023-04-01T23:56:54;3.50;99.90
